sensor_id;sensor_type;location;lat;lon;timestamp;pressure;altitude;pressure_sealevel;temperature;humidity
73566;BME280;61846;52.970;-3.168;2023-05-01T00:01:46;100731.75;;;13.15;51.67
73566;BME280;61846;52.970;-3.168;2023-05-01T00:04:11;100731.08;;;12.15;53.44
73566;BME280;61846;52.970;-3.168;2023-05-01T00:06:36;100735.03;;;11.71;54.87
73566;BME280;61846;52.970;-3.168;2023-05-01T00:09:02;100738.59;;;11.25;56.27
73566;BME280;61846;52.970;-3.168;2023-05-01T00:11:28;100739.68;;;12.93;52.44
73566;BME280;61846;52.970;-3.168;2023-05-01T00:13:53;100740.16;;;13.02;53.02
73566;BME280;61846;52.970;-3.168;2023-05-01T00:16:18;100738.20;;;14.28;49.39
73566;BME280;61846;52.970;-3.168;2023-05-01T00:18:43;100740.20;;;13.28;50.93
73566;BME280;61846;52.970;-3.168;2023-05-01T00:21:09;100741.31;;;11.48;56.41
73566;BME280;61846;52.970;-3.168;2023-05-01T00:23:34;100740.93;;;13.34;51.95
73566;BME280;61846;52.970;-3.168;2023-05-01T00:26:00;100741.93;;;14.11;50.59
73566;BME280;61846;52.970;-3.168;2023-05-01T00:28:26;100736.39;;;14.31;49.50
73566;BME280;61846;52.970;-3.168;2023-05-01T00:30:51;100727.41;;;14.97;48.35
73566;BME280;61846;52.970;-3.168;2023-05-01T00:33:16;100728.67;;;14.46;49.22
73566;BME280;61846;52.970;-3.168;2023-05-01T00:35:43;100725.81;;;15.49;47.41
73566;BME280;61846;52.970;-3.168;2023-05-01T00:38:07;100725.04;;;14.74;48.86
73566;BME280;61846;52.970;-3.168;2023-05-01T00:40:41;100720.61;;;15.50;47.20
73566;BME280;61846;52.970;-3.168;2023-05-01T00:42:58;100717.23;;;15.25;47.86
73566;BME280;61846;52.970;-3.168;2023-05-01T00:45:24;100712.28;;;15.68;46.62
73566;BME280;61846;52.970;-3.168;2023-05-01T00:47:49;100708.18;;;15.80;46.41
73566;BME280;61846;52.970;-3.168;2023-05-01T00:50:16;100707.25;;;15.55;46.97
73566;BME280;61846;52.970;-3.168;2023-05-01T00:52:41;100705.59;;;15.74;46.65
73566;BME280;61846;52.970;-3.168;2023-05-01T00:55:07;100706.58;;;15.53;46.59
73566;BME280;61846;52.970;-3.168;2023-05-01T00:57:32;100708.10;;;15.82;46.47
73566;BME280;61846;52.970;-3.168;2023-05-01T00:59:57;100705.56;;;16.07;45.72
73566;BME280;61846;52.970;-3.168;2023-05-01T01:02:22;100707.52;;;16.07;45.93
73566;BME280;61846;52.970;-3.168;2023-05-01T01:04:47;100710.14;;;15.71;46.45
73566;BME280;61846;52.970;-3.168;2023-05-01T01:07:17;100709.23;;;15.96;45.50
73566;BME280;61846;52.970;-3.168;2023-05-01T01:09:46;100713.24;;;15.04;47.16
73566;BME280;61846;52.970;-3.168;2023-05-01T01:12:10;100706.73;;;15.73;46.12
73566;BME280;61846;52.970;-3.168;2023-05-01T01:14:34;100704.47;;;16.12;45.62
73566;BME280;61846;52.970;-3.168;2023-05-01T01:17:01;100704.31;;;15.71;45.39
73566;BME280;61846;52.970;-3.168;2023-05-01T01:19:34;100697.70;;;16.09;44.93
73566;BME280;61846;52.970;-3.168;2023-05-01T01:21:49;100695.98;;;16.09;45.35
73566;BME280;61846;52.970;-3.168;2023-05-01T01:24:23;100699.02;;;15.38;46.72
73566;BME280;61846;52.970;-3.168;2023-05-01T01:26:49;100696.60;;;15.28;46.96
73566;BME280;61846;52.970;-3.168;2023-05-01T01:31:32;100685.63;;;14.83;47.58
73566;BME280;61846;52.970;-3.168;2023-05-01T01:33:58;100683.26;;;15.54;46.72
73566;BME280;61846;52.970;-3.168;2023-05-01T01:36:21;100683.94;;;15.12;46.99
73566;BME280;61846;52.970;-3.168;2023-05-01T01:38:47;100680.56;;;14.77;47.82
73566;BME280;61846;52.970;-3.168;2023-05-01T01:41:13;100679.22;;;14.68;47.68
73566;BME280;61846;52.970;-3.168;2023-05-01T01:43:38;100682.38;;;14.27;49.05
73566;BME280;61846;52.970;-3.168;2023-05-01T01:46:04;100680.70;;;15.40;47.02
73566;BME280;61846;52.970;-3.168;2023-05-01T01:48:30;100678.37;;;15.77;46.28
73566;BME280;61846;52.970;-3.168;2023-05-01T01:50:52;100677.10;;;15.60;46.12
73566;BME280;61846;52.970;-3.168;2023-05-01T01:53:17;100674.80;;;15.82;46.33
73566;BME280;61846;52.970;-3.168;2023-05-01T01:55:43;100671.97;;;15.59;46.60
73566;BME280;61846;52.970;-3.168;2023-05-01T01:58:08;100670.81;;;15.94;46.04
73566;BME280;61846;52.970;-3.168;2023-05-01T02:00:34;100670.09;;;15.56;46.74
73566;BME280;61846;52.970;-3.168;2023-05-01T02:03:00;100668.04;;;15.37;46.68
73566;BME280;61846;52.970;-3.168;2023-05-01T02:05:25;100670.92;;;14.98;47.27
73566;BME280;61846;52.970;-3.168;2023-05-01T02:07:50;100667.86;;;15.10;47.01
73566;BME280;61846;52.970;-3.168;2023-05-01T02:10:15;100668.91;;;14.86;47.07
73566;BME280;61846;52.970;-3.168;2023-05-01T02:12:41;100667.47;;;15.27;46.65
73566;BME280;61846;52.970;-3.168;2023-05-01T02:15:07;100661.01;;;15.72;45.36
73566;BME280;61846;52.970;-3.168;2023-05-01T02:17:32;100659.15;;;15.51;45.21
73566;BME280;61846;52.970;-3.168;2023-05-01T02:19:58;100654.78;;;15.40;45.85
73566;BME280;61846;52.970;-3.168;2023-05-01T02:22:24;100653.85;;;15.27;45.93
73566;BME280;61846;52.970;-3.168;2023-05-01T02:24:48;100652.29;;;14.89;46.38
73566;BME280;61846;52.970;-3.168;2023-05-01T02:27:16;100650.17;;;15.24;45.86
73566;BME280;61846;52.970;-3.168;2023-05-01T02:29:39;100648.92;;;15.08;46.35
73566;BME280;61846;52.970;-3.168;2023-05-01T02:32:05;100651.65;;;15.74;45.23
73566;BME280;61846;52.970;-3.168;2023-05-01T02:34:33;100656.18;;;15.56;45.23
73566;BME280;61846;52.970;-3.168;2023-05-01T02:36:55;100657.13;;;15.69;44.75
73566;BME280;61846;52.970;-3.168;2023-05-01T02:39:21;100658.81;;;15.67;44.87
73566;BME280;61846;52.970;-3.168;2023-05-01T02:41:47;100657.67;;;15.50;45.16
73566;BME280;61846;52.970;-3.168;2023-05-01T02:44:12;100652.36;;;15.54;45.33
73566;BME280;61846;52.970;-3.168;2023-05-01T02:46:37;100656.00;;;15.62;45.19
73566;BME280;61846;52.970;-3.168;2023-05-01T02:49:03;100651.09;;;15.50;45.10
73566;BME280;61846;52.970;-3.168;2023-05-01T02:51:29;100648.52;;;15.71;45.23
73566;BME280;61846;52.970;-3.168;2023-05-01T02:53:54;100647.41;;;15.51;45.18
73566;BME280;61846;52.970;-3.168;2023-05-01T02:56:19;100648.85;;;15.45;45.18
73566;BME280;61846;52.970;-3.168;2023-05-01T02:58:46;100651.27;;;15.13;45.75
73566;BME280;61846;52.970;-3.168;2023-05-01T03:01:10;100652.00;;;15.42;45.50
73566;BME280;61846;52.970;-3.168;2023-05-01T03:03:36;100652.42;;;15.69;45.47
73566;BME280;61846;52.970;-3.168;2023-05-01T03:06:01;100648.30;;;15.60;45.89
73566;BME280;61846;52.970;-3.168;2023-05-01T03:08:26;100649.17;;;15.67;46.05
73566;BME280;61846;52.970;-3.168;2023-05-01T03:10:52;100649.90;;;14.39;46.71
73566;BME280;61846;52.970;-3.168;2023-05-01T03:13:18;100645.73;;;15.31;46.23
73566;BME280;61846;52.970;-3.168;2023-05-01T03:15:43;100652.49;;;14.92;46.51
73566;BME280;61846;52.970;-3.168;2023-05-01T03:18:09;100654.05;;;15.38;46.18
73566;BME280;61846;52.970;-3.168;2023-05-01T03:20:34;100657.84;;;14.68;47.26
73566;BME280;61846;52.970;-3.168;2023-05-01T03:23:00;100658.20;;;15.28;46.40
73566;BME280;61846;52.970;-3.168;2023-05-01T03:25:25;100657.25;;;15.79;46.10
73566;BME280;61846;52.970;-3.168;2023-05-01T03:27:50;100656.90;;;15.02;46.55
73566;BME280;61846;52.970;-3.168;2023-05-01T03:30:16;100659.49;;;15.47;45.85
73566;BME280;61846;52.970;-3.168;2023-05-01T03:32:41;100660.52;;;15.45;46.07
73566;BME280;61846;52.970;-3.168;2023-05-01T03:35:08;100658.59;;;15.52;46.03
73566;BME280;61846;52.970;-3.168;2023-05-01T03:37:33;100657.79;;;15.18;46.60
73566;BME280;61846;52.970;-3.168;2023-05-01T03:39:58;100657.72;;;15.61;46.10
73566;BME280;61846;52.970;-3.168;2023-05-01T03:42:23;100659.62;;;14.82;47.09
73566;BME280;61846;52.970;-3.168;2023-05-01T03:44:49;100663.78;;;15.61;45.92
73566;BME280;61846;52.970;-3.168;2023-05-01T03:47:14;100661.42;;;15.87;46.00
73566;BME280;61846;52.970;-3.168;2023-05-01T03:49:40;100663.24;;;15.70;45.83
73566;BME280;61846;52.970;-3.168;2023-05-01T03:52:05;100665.27;;;15.12;46.75
73566;BME280;61846;52.970;-3.168;2023-05-01T03:54:31;100662.86;;;14.99;46.83
73566;BME280;61846;52.970;-3.168;2023-05-01T03:56:56;100662.21;;;15.38;46.39
73566;BME280;61846;52.970;-3.168;2023-05-01T03:59:22;100661.07;;;15.14;46.80
73566;BME280;61846;52.970;-3.168;2023-05-01T04:01:47;100662.52;;;15.45;46.38
73566;BME280;61846;52.970;-3.168;2023-05-01T04:04:13;100663.75;;;15.43;46.20
73566;BME280;61846;52.970;-3.168;2023-05-01T04:06:38;100664.04;;;15.69;46.05
73566;BME280;61846;52.970;-3.168;2023-05-01T04:09:04;100665.26;;;15.49;45.88
73566;BME280;61846;52.970;-3.168;2023-05-01T04:11:29;100667.85;;;15.53;46.35
73566;BME280;61846;52.970;-3.168;2023-05-01T04:13:55;100671.27;;;15.61;45.60
73566;BME280;61846;52.970;-3.168;2023-05-01T04:16:20;100673.73;;;15.32;45.99
73566;BME280;61846;52.970;-3.168;2023-05-01T04:18:46;100674.72;;;15.57;46.53
73566;BME280;61846;52.970;-3.168;2023-05-01T04:21:11;100675.20;;;15.22;46.00
73566;BME280;61846;52.970;-3.168;2023-05-01T04:23:37;100669.35;;;15.46;46.65
73566;BME280;61846;52.970;-3.168;2023-05-01T04:26:02;100673.25;;;15.30;46.97
73566;BME280;61846;52.970;-3.168;2023-05-01T04:28:28;100672.19;;;15.58;46.89
73566;BME280;61846;52.970;-3.168;2023-05-01T04:30:53;100674.43;;;15.07;47.08
73566;BME280;61846;52.970;-3.168;2023-05-01T04:33:19;100677.21;;;14.59;47.74
73566;BME280;61846;52.970;-3.168;2023-05-01T04:35:44;100679.01;;;14.90;47.97
73566;BME280;61846;52.970;-3.168;2023-05-01T04:38:10;100679.92;;;15.13;47.41
73566;BME280;61846;52.970;-3.168;2023-05-01T04:40:35;100679.47;;;15.18;47.32
73566;BME280;61846;52.970;-3.168;2023-05-01T04:43:01;100681.96;;;14.56;48.56
73566;BME280;61846;52.970;-3.168;2023-05-01T04:45:26;100684.21;;;15.25;47.26
73566;BME280;61846;52.970;-3.168;2023-05-01T04:47:52;100686.97;;;14.88;47.33
73566;BME280;61846;52.970;-3.168;2023-05-01T04:50:17;100687.51;;;15.02;46.70
73566;BME280;61846;52.970;-3.168;2023-05-01T04:52:43;100688.00;;;15.13;47.37
73566;BME280;61846;52.970;-3.168;2023-05-01T04:55:09;100690.74;;;14.07;48.78
73566;BME280;61846;52.970;-3.168;2023-05-01T04:57:34;100696.03;;;13.47;49.96
73566;BME280;61846;52.970;-3.168;2023-05-01T04:59:59;100693.67;;;13.36;50.44
73566;BME280;61846;52.970;-3.168;2023-05-01T05:02:25;100690.07;;;13.70;49.80
73566;BME280;61846;52.970;-3.168;2023-05-01T05:04:50;100692.94;;;14.12;49.44
73566;BME280;61846;52.970;-3.168;2023-05-01T05:07:16;100697.46;;;14.21;49.33
73566;BME280;61846;52.970;-3.168;2023-05-01T05:09:41;100695.29;;;13.31;50.72
73566;BME280;61846;52.970;-3.168;2023-05-01T05:12:07;100693.90;;;13.33;50.45
73566;BME280;61846;52.970;-3.168;2023-05-01T05:14:32;100699.19;;;13.60;49.85
73566;BME280;61846;52.970;-3.168;2023-05-01T05:16:58;100698.68;;;14.01;48.94
73566;BME280;61846;52.970;-3.168;2023-05-01T05:19:23;100699.16;;;13.32;50.50
73566;BME280;61846;52.970;-3.168;2023-05-01T05:21:48;100698.75;;;14.17;48.87
73566;BME280;61846;52.970;-3.168;2023-05-01T05:24:14;100698.72;;;14.62;48.49
73566;BME280;61846;52.970;-3.168;2023-05-01T05:26:39;100704.18;;;14.92;48.27
73566;BME280;61846;52.970;-3.168;2023-05-01T05:29:05;100705.30;;;13.72;49.38
73566;BME280;61846;52.970;-3.168;2023-05-01T05:31:31;100706.20;;;14.73;47.97
73566;BME280;61846;52.970;-3.168;2023-05-01T05:33:56;100709.51;;;14.59;47.54
73566;BME280;61846;52.970;-3.168;2023-05-01T05:36:21;100712.80;;;13.90;48.93
73566;BME280;61846;52.970;-3.168;2023-05-01T05:38:47;100712.58;;;13.09;51.51
73566;BME280;61846;52.970;-3.168;2023-05-01T05:41:12;100716.05;;;12.94;51.09
73566;BME280;61846;52.970;-3.168;2023-05-01T05:43:37;100719.31;;;12.94;51.42
73566;BME280;61846;52.970;-3.168;2023-05-01T05:46:03;100722.33;;;12.90;51.55
73566;BME280;61846;52.970;-3.168;2023-05-01T05:48:28;100725.51;;;12.56;52.07
73566;BME280;61846;52.970;-3.168;2023-05-01T05:50:54;100723.41;;;12.58;52.01
73566;BME280;61846;52.970;-3.168;2023-05-01T05:53:19;100725.94;;;13.23;51.15
73566;BME280;61846;52.970;-3.168;2023-05-01T05:55:46;100727.51;;;13.08;51.83
73566;BME280;61846;52.970;-3.168;2023-05-01T05:58:10;100731.81;;;12.53;52.68
73566;BME280;61846;52.970;-3.168;2023-05-01T06:00:36;100733.58;;;12.29;53.60
73566;BME280;61846;52.970;-3.168;2023-05-01T06:03:01;100736.90;;;12.06;54.27
73566;BME280;61846;52.970;-3.168;2023-05-01T06:05:26;100737.63;;;13.40;51.74
73566;BME280;61846;52.970;-3.168;2023-05-01T06:07:52;100737.89;;;12.19;53.72
73566;BME280;61846;52.970;-3.168;2023-05-01T06:10:18;100741.86;;;12.79;52.35
73566;BME280;61846;52.970;-3.168;2023-05-01T06:12:43;100745.04;;;12.88;51.38
73566;BME280;61846;52.970;-3.168;2023-05-01T06:15:09;100744.66;;;12.67;52.52
73566;BME280;61846;52.970;-3.168;2023-05-01T06:17:34;100745.24;;;12.57;52.95
73566;BME280;61846;52.970;-3.168;2023-05-01T06:20:00;100747.25;;;12.98;51.76
73566;BME280;61846;52.970;-3.168;2023-05-01T06:22:25;100749.91;;;13.47;49.59
73566;BME280;61846;52.970;-3.168;2023-05-01T06:24:51;100752.83;;;14.05;48.61
73566;BME280;61846;52.970;-3.168;2023-05-01T06:27:16;100751.64;;;14.29;47.35
73566;BME280;61846;52.970;-3.168;2023-05-01T06:29:42;100754.63;;;13.18;50.74
73566;BME280;61846;52.970;-3.168;2023-05-01T06:32:07;100760.41;;;13.73;49.31
73566;BME280;61846;52.970;-3.168;2023-05-01T06:34:33;100759.46;;;13.28;49.86
73566;BME280;61846;52.970;-3.168;2023-05-01T06:36:58;100761.37;;;12.91;50.80
73566;BME280;61846;52.970;-3.168;2023-05-01T06:39:24;100759.67;;;13.95;50.14
73566;BME280;61846;52.970;-3.168;2023-05-01T06:41:49;100759.50;;;13.87;48.70
73566;BME280;61846;52.970;-3.168;2023-05-01T06:44:15;100758.47;;;13.71;48.76
73566;BME280;61846;52.970;-3.168;2023-05-01T06:46:40;100764.48;;;14.06;48.80
73566;BME280;61846;52.970;-3.168;2023-05-01T06:49:06;100765.50;;;13.76;48.56
73566;BME280;61846;52.970;-3.168;2023-05-01T06:51:31;100771.23;;;13.47;49.81
73566;BME280;61846;52.970;-3.168;2023-05-01T06:53:57;100773.41;;;13.32;50.43
73566;BME280;61846;52.970;-3.168;2023-05-01T06:56:22;100771.48;;;13.26;50.42
73566;BME280;61846;52.970;-3.168;2023-05-01T06:58:48;100774.46;;;13.70;49.75
73566;BME280;61846;52.970;-3.168;2023-05-01T07:01:13;100775.70;;;13.27;49.77
73566;BME280;61846;52.970;-3.168;2023-05-01T07:03:39;100777.98;;;12.94;51.32
73566;BME280;61846;52.970;-3.168;2023-05-01T07:06:04;100775.09;;;13.89;49.37
73566;BME280;61846;52.970;-3.168;2023-05-01T07:08:30;100779.62;;;14.47;48.33
73566;BME280;61846;52.970;-3.168;2023-05-01T07:10:55;100782.49;;;14.04;48.99
73566;BME280;61846;52.970;-3.168;2023-05-01T07:13:21;100785.85;;;13.29;51.15
73566;BME280;61846;52.970;-3.168;2023-05-01T07:15:46;100787.38;;;12.69;52.92
73566;BME280;61846;52.970;-3.168;2023-05-01T07:18:12;100794.29;;;11.68;56.16
73566;BME280;61846;52.970;-3.168;2023-05-01T07:20:37;100792.36;;;12.11;54.62
73566;BME280;61846;52.970;-3.168;2023-05-01T07:23:03;100784.99;;;12.84;55.73
73566;BME280;61846;52.970;-3.168;2023-05-01T07:25:29;100787.66;;;13.59;52.62
73566;BME280;61846;52.970;-3.168;2023-05-01T07:27:54;100788.42;;;13.76;49.76
73566;BME280;61846;52.970;-3.168;2023-05-01T07:30:20;100788.90;;;14.19;49.96
73566;BME280;61846;52.970;-3.168;2023-05-01T07:32:45;100791.53;;;13.69;50.71
73566;BME280;61846;52.970;-3.168;2023-05-01T07:35:11;100795.48;;;14.48;49.59
73566;BME280;61846;52.970;-3.168;2023-05-01T07:37:36;100797.45;;;13.77;50.99
73566;BME280;61846;52.970;-3.168;2023-05-01T07:40:02;100799.95;;;13.80;49.93
73566;BME280;61846;52.970;-3.168;2023-05-01T07:42:28;100803.13;;;13.91;49.57
73566;BME280;61846;52.970;-3.168;2023-05-01T07:44:53;100804.97;;;13.51;49.68
73566;BME280;61846;52.970;-3.168;2023-05-01T07:47:18;100805.61;;;13.63;50.24
73566;BME280;61846;52.970;-3.168;2023-05-01T07:49:44;100808.06;;;13.73;49.87
73566;BME280;61846;52.970;-3.168;2023-05-01T07:52:09;100812.15;;;13.81;49.20
73566;BME280;61846;52.970;-3.168;2023-05-01T07:54:35;100813.38;;;14.28;48.26
73566;BME280;61846;52.970;-3.168;2023-05-01T07:57:00;100815.48;;;13.70;49.03
73566;BME280;61846;52.970;-3.168;2023-05-01T07:59:26;100817.85;;;13.18;49.23
73566;BME280;61846;52.970;-3.168;2023-05-01T08:01:51;100825.61;;;13.33;50.40
73566;BME280;61846;52.970;-3.168;2023-05-01T08:04:17;100829.20;;;13.66;50.34
73566;BME280;61846;52.970;-3.168;2023-05-01T08:06:42;100831.12;;;13.51;49.91
73566;BME280;61846;52.970;-3.168;2023-05-01T08:09:08;100834.45;;;13.49;51.41
73566;BME280;61846;52.970;-3.168;2023-05-01T08:11:33;100838.46;;;12.93;52.83
73566;BME280;61846;52.970;-3.168;2023-05-01T08:13:59;100839.84;;;14.21;50.46
73566;BME280;61846;52.970;-3.168;2023-05-01T08:16:24;100840.90;;;14.32;50.67
73566;BME280;61846;52.970;-3.168;2023-05-01T08:18:50;100838.51;;;14.40;50.36
73566;BME280;61846;52.970;-3.168;2023-05-01T08:21:15;100835.02;;;15.01;49.55
73566;BME280;61846;52.970;-3.168;2023-05-01T08:23:40;100838.42;;;14.54;50.72
73566;BME280;61846;52.970;-3.168;2023-05-01T08:26:06;100835.54;;;15.00;49.87
73566;BME280;61846;52.970;-3.168;2023-05-01T08:28:33;100842.16;;;14.85;49.89
73566;BME280;61846;52.970;-3.168;2023-05-01T08:30:57;100837.00;;;14.53;50.27
73566;BME280;61846;52.970;-3.168;2023-05-01T08:33:22;100838.39;;;15.19;48.52
73566;BME280;61846;52.970;-3.168;2023-05-01T08:35:48;100838.67;;;15.16;48.38
73566;BME280;61846;52.970;-3.168;2023-05-01T08:38:13;100838.89;;;14.86;47.55
73566;BME280;61846;52.970;-3.168;2023-05-01T08:40:43;100843.14;;;14.61;50.49
73566;BME280;61846;52.970;-3.168;2023-05-01T08:43:04;100837.94;;;14.75;49.88
73566;BME280;61846;52.970;-3.168;2023-05-01T08:45:32;100844.53;;;14.90;49.50
73566;BME280;61846;52.970;-3.168;2023-05-01T08:47:56;100848.85;;;14.58;48.92
73566;BME280;61846;52.970;-3.168;2023-05-01T08:50:21;100848.68;;;14.22;50.76
73566;BME280;61846;52.970;-3.168;2023-05-01T08:52:46;100850.03;;;13.57;51.27
73566;BME280;61846;52.970;-3.168;2023-05-01T08:55:13;100853.94;;;14.59;49.94
73566;BME280;61846;52.970;-3.168;2023-05-01T08:57:37;100857.96;;;13.62;49.75
73566;BME280;61846;52.970;-3.168;2023-05-01T09:00:03;100859.98;;;14.24;48.15
73566;BME280;61846;52.970;-3.168;2023-05-01T09:02:28;100864.48;;;14.07;49.78
73566;BME280;61846;52.970;-3.168;2023-05-01T09:04:54;100871.13;;;14.63;48.97
73566;BME280;61846;52.970;-3.168;2023-05-01T09:07:19;100872.04;;;13.55;52.44
73566;BME280;61846;52.970;-3.168;2023-05-01T09:09:44;100875.90;;;13.85;51.23
73566;BME280;61846;52.970;-3.168;2023-05-01T09:12:17;100870.15;;;13.73;50.81
73566;BME280;61846;52.970;-3.168;2023-05-01T09:14:37;100871.65;;;13.64;51.74
73566;BME280;61846;52.970;-3.168;2023-05-01T09:17:01;100872.08;;;13.74;51.79
73566;BME280;61846;52.970;-3.168;2023-05-01T09:19:26;100877.01;;;13.91;51.54
73566;BME280;61846;52.970;-3.168;2023-05-01T09:21:52;100878.83;;;14.70;49.46
73566;BME280;61846;52.970;-3.168;2023-05-01T09:24:17;100885.24;;;15.20;49.41
73566;BME280;61846;52.970;-3.168;2023-05-01T09:26:42;100882.09;;;15.97;48.60
73566;BME280;61846;52.970;-3.168;2023-05-01T09:29:08;100881.80;;;14.83;48.07
73566;BME280;61846;52.970;-3.168;2023-05-01T09:31:33;100882.00;;;15.15;48.50
73566;BME280;61846;52.970;-3.168;2023-05-01T09:34:01;100882.09;;;15.40;47.89
73566;BME280;61846;52.970;-3.168;2023-05-01T09:36:25;100885.23;;;15.09;50.13
73566;BME280;61846;52.970;-3.168;2023-05-01T09:38:50;100883.65;;;15.20;47.17
73566;BME280;61846;52.970;-3.168;2023-05-01T09:41:15;100884.60;;;16.08;46.45
73566;BME280;61846;52.970;-3.168;2023-05-01T09:43:41;100884.81;;;16.04;46.18
73566;BME280;61846;52.970;-3.168;2023-05-01T09:46:08;100893.86;;;15.75;47.41
73566;BME280;61846;52.970;-3.168;2023-05-01T09:48:32;100891.57;;;15.33;47.53
73566;BME280;61846;52.970;-3.168;2023-05-01T09:50:57;100892.38;;;14.93;47.19
73566;BME280;61846;52.970;-3.168;2023-05-01T09:53:32;100889.58;;;15.80;47.42
73566;BME280;61846;52.970;-3.168;2023-05-01T09:55:59;100892.67;;;15.11;47.56
73566;BME280;61846;52.970;-3.168;2023-05-01T10:00:47;100889.13;;;15.60;47.58
73566;BME280;61846;52.970;-3.168;2023-05-01T10:03:12;100888.76;;;15.19;46.32
73566;BME280;61846;52.970;-3.168;2023-05-01T10:07:58;100892.43;;;15.72;47.40
73566;BME280;61846;52.970;-3.168;2023-05-01T10:10:21;100889.61;;;15.80;45.69
73566;BME280;61846;52.970;-3.168;2023-05-01T10:12:46;100891.34;;;16.37;43.80
73566;BME280;61846;52.970;-3.168;2023-05-01T10:15:11;100892.53;;;16.73;43.10
73566;BME280;61846;52.970;-3.168;2023-05-01T10:17:38;100896.36;;;16.20;44.01
73566;BME280;61846;52.970;-3.168;2023-05-01T10:20:02;100904.88;;;15.41;44.83
73566;BME280;61846;52.970;-3.168;2023-05-01T10:22:27;100901.84;;;16.70;43.74
73566;BME280;61846;52.970;-3.168;2023-05-01T10:24:53;100910.81;;;15.57;45.84
73566;BME280;61846;52.970;-3.168;2023-05-01T10:27:18;100911.81;;;15.69;44.25
73566;BME280;61846;52.970;-3.168;2023-05-01T10:29:45;100911.99;;;15.75;45.98
73566;BME280;61846;52.970;-3.168;2023-05-01T10:32:09;100908.12;;;16.28;44.63
73566;BME280;61846;52.970;-3.168;2023-05-01T10:34:37;100914.57;;;16.12;46.64
73566;BME280;61846;52.970;-3.168;2023-05-01T10:37:03;100918.92;;;15.57;47.13
73566;BME280;61846;52.970;-3.168;2023-05-01T10:39:31;100918.62;;;15.57;47.39
73566;BME280;61846;52.970;-3.168;2023-05-01T10:42:01;100916.76;;;15.47;47.61
73566;BME280;61846;52.970;-3.168;2023-05-01T10:44:20;100921.66;;;15.42;47.05
73566;BME280;61846;52.970;-3.168;2023-05-01T10:46:41;100919.19;;;15.81;46.14
73566;BME280;61846;52.970;-3.168;2023-05-01T10:49:07;100919.58;;;15.93;45.18
73566;BME280;61846;52.970;-3.168;2023-05-01T10:51:32;100920.99;;;16.00;46.48
73566;BME280;61846;52.970;-3.168;2023-05-01T10:56:39;100931.56;;;16.00;44.05
73566;BME280;61846;52.970;-3.168;2023-05-01T10:58:56;100933.28;;;16.21;42.99
73566;BME280;61846;52.970;-3.168;2023-05-01T11:01:27;100932.00;;;16.52;43.01
73566;BME280;61846;52.970;-3.168;2023-05-01T11:03:39;100940.76;;;16.08;44.16
73566;BME280;61846;52.970;-3.168;2023-05-01T11:06:06;100946.64;;;15.67;44.86
73566;BME280;61846;52.970;-3.168;2023-05-01T11:08:31;100946.30;;;15.97;45.06
73566;BME280;61846;52.970;-3.168;2023-05-01T11:10:56;100949.97;;;15.72;45.35
73566;BME280;61846;52.970;-3.168;2023-05-01T11:15:47;100954.34;;;15.55;44.57
73566;BME280;61846;52.970;-3.168;2023-05-01T11:18:12;100955.83;;;15.14;46.26
73566;BME280;61846;52.970;-3.168;2023-05-01T11:20:47;100955.45;;;15.71;44.96
73566;BME280;61846;52.970;-3.168;2023-05-01T11:23:03;100954.19;;;16.41;44.05
73566;BME280;61846;52.970;-3.168;2023-05-01T11:25:30;100953.76;;;16.42;43.30
73566;BME280;61846;52.970;-3.168;2023-05-01T11:27:55;100962.57;;;15.40;45.32
73566;BME280;61846;52.970;-3.168;2023-05-01T11:30:19;100963.98;;;15.85;45.06
73566;BME280;61846;52.970;-3.168;2023-05-01T11:32:46;100962.65;;;15.07;45.86
73566;BME280;61846;52.970;-3.168;2023-05-01T11:35:16;100964.98;;;15.08;47.01
73566;BME280;61846;52.970;-3.168;2023-05-01T11:37:40;100967.05;;;15.18;45.72
73566;BME280;61846;52.970;-3.168;2023-05-01T11:40:01;100971.40;;;15.39;45.31
73566;BME280;61846;52.970;-3.168;2023-05-01T11:42:26;100973.27;;;15.43;45.93
73566;BME280;61846;52.970;-3.168;2023-05-01T11:45:05;100972.99;;;15.64;44.66
73566;BME280;61846;52.970;-3.168;2023-05-01T11:47:17;100976.47;;;15.89;44.33
73566;BME280;61846;52.970;-3.168;2023-05-01T11:49:43;100980.64;;;14.71;47.78
73566;BME280;61846;52.970;-3.168;2023-05-01T11:52:08;100979.32;;;15.73;45.40
73566;BME280;61846;52.970;-3.168;2023-05-01T11:56:59;100985.54;;;15.35;45.52
73566;BME280;61846;52.970;-3.168;2023-05-01T11:59:25;100982.59;;;15.71;45.52
73566;BME280;61846;52.970;-3.168;2023-05-01T12:01:50;100983.57;;;16.06;44.99
73566;BME280;61846;52.970;-3.168;2023-05-01T12:04:22;100984.43;;;15.65;45.22
73566;BME280;61846;52.970;-3.168;2023-05-01T12:06:42;100988.97;;;15.02;46.18
73566;BME280;61846;52.970;-3.168;2023-05-01T12:09:06;100990.23;;;15.43;45.24
73566;BME280;61846;52.970;-3.168;2023-05-01T12:11:32;100988.68;;;16.63;43.65
73566;BME280;61846;52.970;-3.168;2023-05-01T12:13:56;100988.28;;;15.03;45.15
73566;BME280;61846;52.970;-3.168;2023-05-01T12:16:22;100987.78;;;15.23;44.75
73566;BME280;61846;52.970;-3.168;2023-05-01T12:18:47;100989.67;;;15.03;45.77
73566;BME280;61846;52.970;-3.168;2023-05-01T12:21:15;100986.68;;;15.52;45.21
73566;BME280;61846;52.970;-3.168;2023-05-01T12:23:38;100984.66;;;14.96;46.22
73566;BME280;61846;52.970;-3.168;2023-05-01T12:28:30;100989.51;;;15.62;42.80
73566;BME280;61846;52.970;-3.168;2023-05-01T12:31:01;100989.01;;;14.85;45.27
73566;BME280;61846;52.970;-3.168;2023-05-01T12:33:21;100994.73;;;15.68;44.67
73566;BME280;61846;52.970;-3.168;2023-05-01T12:35:47;100992.17;;;15.84;43.11
73566;BME280;61846;52.970;-3.168;2023-05-01T12:38:12;100989.42;;;16.04;44.58
73566;BME280;61846;52.970;-3.168;2023-05-01T12:40:37;100994.14;;;15.96;44.06
73566;BME280;61846;52.970;-3.168;2023-05-01T12:43:02;100994.33;;;15.69;42.84
73566;BME280;61846;52.970;-3.168;2023-05-01T12:45:27;100995.01;;;15.95;42.98
73566;BME280;61846;52.970;-3.168;2023-05-01T12:47:53;100992.96;;;16.70;41.77